Time;durP1;ratioP1;P1;durP2;ratioP2;P2;SDS_P1;SDS_P2;PMS_P1;PMS_P2;Temp;Humidity;BMP_temperature;BMP_pressure;BME280_temperature;BME280_humidity;BME280_pressure;Samples;Min_cycle;Max_cycle;Signal;HPM_P1;HPM_P2
2022/05/22 00:01:00;;;;;;;1.02;0.70;;;;;;;17.21;52.71;99545.05;1832812;106;25785;-80
2022/05/22 00:04:57;;;;;;;1.37;0.78;;;;;;;17.21;52.67;99546.38;1823554;107;26565;-82
2022/05/22 00:08:51;;;;;;;1.45;0.90;;;;;;;17.15;52.73;99546.50;1769209;110;25936;-80
2022/05/22 00:13:02;;;;;;;1.75;0.70;;;;;;;17.12;52.76;99535.56;1722669;111;25930;-82
2022/05/22 00:16:52;;;;;;;1.52;0.60;;;;;;;17.07;52.85;99538.70;1729126;113;26227;-82
2022/05/22 00:24:28;;;;;;;;;;;;;;;;;;;;;
2022/05/22 00:28:00;;;;;;;5.10;0.72;;;;;;;16.97;53.07;99534.02;1763037;110;25863;-86
2022/05/22 00:31:40;;;;;;;3.75;0.68;;;;;;;16.98;53.06;99535.78;1808740;106;25818;-76
2022/05/22 00:35:20;;;;;;;4.22;0.80;;;;;;;16.97;53.08;99534.48;1841711;106;25794;-78
2022/05/22 00:38:58;;;;;;;1.20;0.62;;;;;;;16.95;53.12;99531.88;1755565;107;25986;-78
2022/05/22 00:42:24;;;;;;;2.02;1.00;;;;;;;16.95;53.16;99537.60;1752540;109;25805;-76
2022/05/22 00:46:14;;;;;;;1.02;0.53;;;;;;;16.91;53.12;99537.23;1706523;114;25887;-77
2022/05/22 00:49:50;;;;;;;;;;;;;;;16.91;53.10;99534.60;1744156;112;25893;-75
2022/05/22 00:53:28;;;;;;;1.32;0.80;;;;;;;16.89;53.15;99541.19;1780703;106;25805;-77
2022/05/22 00:57:25;;;;;;;0.88;0.40;;;;;;;16.79;53.10;99540.91;1864159;104;25906;-76
2022/05/22 01:00:59;;;;;;;2.47;0.50;;;;;;;16.76;53.18;99536.55;1943959;100;25803;-74
2022/05/22 01:04:44;;;;;;;1.20;0.60;;;;;;;16.72;53.22;99529.57;1943827;100;25963;-75
2022/05/22 01:08:18;;;;;;;3.25;0.55;;;;;;;16.71;53.21;99523.89;1962911;99;26402;-74
2022/05/22 01:11:52;;;;;;;2.08;0.65;;;;;;;16.73;53.17;99531.75;2023789;96;25886;-75
2022/05/22 01:15:27;;;;;;;1.60;0.95;;;;;;;16.74;53.06;99519.94;2072461;92;26333;-75
2022/05/22 01:19:26;;;;;;;1.00;0.62;;;;;;;16.70;53.02;99532.66;2147782;89;25772;-74
2022/05/22 01:22:59;;;;;;;1.22;0.50;;;;;;;16.69;53.03;99530.06;2222639;89;25711;-76
2022/05/22 01:26:41;;;;;;;;;;;;;;;;;;;;;
2022/05/22 01:30:31;;;;;;;1.50;1.32;;;;;;;16.64;52.97;99534.09;2237936;88;25735;-76
2022/05/22 01:34:19;;;;;;;1.80;0.65;;;;;;;16.61;52.96;99537.22;2235972;87;25815;-77
2022/05/22 01:37:54;;;;;;;2.00;0.60;;;;;;;16.58;52.87;99536.80;2238101;88;25870;-75
2022/05/22 01:41:33;;;;;;;0.80;0.50;;;;;;;16.57;52.88;99535.08;2236370;87;25695;-77
2022/05/22 01:45:05;;;;;;;0.95;0.50;;;;;;;16.53;52.89;99539.48;2233928;88;25847;-76
2022/05/22 01:49:01;;;;;;;1.47;0.50;;;;;;;16.50;52.91;99546.55;2268103;84;25660;-80
2022/05/22 01:52:59;;;;;;;2.12;0.50;;;;;;;16.46;52.89;99549.67;2224984;86;25738;-78
2022/05/22 02:01:10;;;;;;;1.37;0.70;;;;;;;16.43;52.95;99548.84;2027269;96;25792;-79
2022/05/22 02:04:46;;;;;;;0.90;0.47;;;;;;;16.41;52.97;99544.94;1981885;99;25351;-77
2022/05/22 02:08:31;;;;;;;1.00;0.85;;;;;;;16.38;52.95;99554.18;1982730;99;25830;-74
2022/05/22 02:12:07;;;;;;;2.65;0.50;;;;;;;16.37;53.02;99552.86;1975553;98;25984;-76
2022/05/22 02:16:02;;;;;;;;;;;;;;;;;;;;;
2022/05/22 02:19:45;;;;;;;3.55;1.20;;;;;;;16.29;52.92;99551.66;1959050;101;26224;-76
2022/05/22 02:23:10;;;;;;;1.52;0.50;;;;;;;16.28;52.89;99556.05;1960199;100;30772;-78
2022/05/22 02:26:40;;;;;;;1.92;0.50;;;;;;;16.24;52.91;99556.99;1969830;99;26636;-77
2022/05/22 02:30:15;;;;;;;0.60;0.40;;;;;;;16.22;52.88;99550.87;1899944;104;25959;-77
2022/05/22 02:34:04;;;;;;;0.70;0.45;;;;;;;16.21;52.82;99557.02;1901339;102;25782;-76
2022/05/22 02:38:07;;;;;;;2.17;0.37;;;;;;;16.18;52.79;99547.86;1900565;101;25808;-77
2022/05/22 02:41:50;;;;;;;1.70;0.60;;;;;;;16.15;52.79;99549.66;1902657;102;26535;-75
2022/05/22 02:49:14;;;;;;;1.20;0.62;;;;;;;16.13;52.77;99553.63;1908895;100;30963;-75
2022/05/22 02:52:51;;;;;;;1.10;0.60;;;;;;;16.14;52.74;99555.81;1935438;100;25740;-76
2022/05/22 02:56:43;;;;;;;0.72;0.55;;;;;;;16.15;52.73;99562.80;1957311;99;26110;-75
2022/05/22 03:00:33;;;;;;;1.22;0.50;;;;;;;16.14;52.73;99556.69;1947081;101;25782;-75
2022/05/22 03:08:20;;;;;;;;;;;;;;;;;;;;;
2022/05/22 03:11:47;;;;;;;1.80;0.60;;;;;;;16.10;52.72;99561.98;1962146;100;25908;-75
2022/05/22 03:25:05;;;;;;;;;;;;;;;;;;;;;
2022/05/22 03:34:06;;;;;;;0.95;0.60;;;;;;;16.10;52.46;99563.29;1796156;107;25881;-75
2022/05/22 03:37:45;;;;;;;0.88;0.40;;;;;;;16.05;52.46;99559.41;1793043;109;26087;-75
2022/05/22 03:41:24;;;;;;;0.60;0.40;;;;;;;16.10;52.49;99560.66;1806814;107;26536;-75
2022/05/22 03:44:52;;;;;;;0.88;0.40;;;;;;;16.13;52.47;99565.89;1816297;107;26395;-76
2022/05/22 03:48:16;;;;;;;0.90;0.62;;;;;;;16.15;52.44;99560.17;1805029;108;25798;-77
2022/05/22 03:51:47;;;;;;;1.60;0.82;;;;;;;16.11;52.46;99564.61;1867955;103;26162;-75
2022/05/22 03:55:15;;;;;;;0.57;0.40;;;;;;;16.09;52.48;99559.80;1911447;101;25967;-75
2022/05/22 03:59:04;;;;;;;1.37;0.57;;;;;;;16.13;52.52;99564.56;1888760;103;25973;-76
2022/05/22 04:02:20;;;;;;;1.20;0.55;;;;;;;16.14;52.52;99564.56;1884467;104;26050;-75
2022/05/22 04:06:09;;;;;;;;;;;;;;;;;;;;;
2022/05/22 04:10:13;;;;;;;1.50;0.50;;;;;;;16.20;52.51;99570.17;1980211;97;25833;-77
2022/05/22 04:13:57;;;;;;;;;;;;;;;;;;;;;
2022/05/22 04:17:22;;;;;;;0.42;0.40;;;;;;;16.25;52.45;99571.00;2116122;91;25767;-79
2022/05/22 04:21:01;;;;;;;3.98;0.70;;;;;;;16.28;52.35;99573.60;2108715;92;25744;-76
2022/05/22 04:25:17;;;;;;;2.05;0.53;;;;;;;16.31;52.29;99575.33;2175711;90;25759;-76
2022/05/22 04:28:55;;;;;;;;;;;;;;;;;;;;;
2022/05/22 04:36:38;;;;;;;1.42;0.60;;;;;;;16.34;52.19;99573.53;2097447;92;25507;-79
2022/05/22 04:44:21;;;;;;;0.90;0.72;;;;;;;16.42;52.12;99577.37;1958039;99;25931;-78
2022/05/22 04:47:55;;;;;;;2.90;0.50;;;;;;;16.46;51.99;99568.09;1975784;98;25688;-74
2022/05/22 04:51:42;;;;;;;1.42;0.50;;;;;;;16.47;51.94;99575.56;1971993;98;25835;-74
2022/05/22 04:55:53;;;;;;;0.90;0.50;;;;;;;16.44;51.89;99572.97;1972703;97;25756;-74
2022/05/22 04:59:40;;;;;;;1.95;0.47;;;;;;;16.45;51.85;99576.88;1969696;100;25758;-74
2022/05/22 05:07:59;;;;;;;1.27;0.50;;;;;;;16.47;51.85;99574.25;1916721;101;26689;-79
2022/05/22 05:11:47;;;;;;;2.25;0.72;;;;;;;16.53;51.79;99576.77;1796115;110;25839;-75
2022/05/22 05:19:58;;;;;;;0.82;0.40;;;;;;;16.62;51.59;99581.05;1780964;109;26391;-76
2022/05/22 05:23:26;;;;;;;0.45;0.45;;;;;;;16.65;51.50;99582.33;1791526;109;25875;-74
2022/05/22 05:27:23;;;;;;;;;;;;;;;;;;;;;
2022/05/22 05:34:39;;;;;;;1.00;0.57;;;;;;;16.79;51.27;99592.69;1867327;104;25859;-80
2022/05/22 05:38:50;;;;;;;;;;;;;;;;;;;;;
2022/05/22 05:42:18;;;;;;;0.85;0.70;;;;;;;16.87;51.05;99592.12;1818843;106;26062;-76
2022/05/22 05:50:26;;;;;;;;;;;;;;;;;;;;;
2022/05/22 05:54:04;;;;;;;1.37;0.50;;;;;;;17.50;50.50;99576.63;1744461;112;25828;-74
2022/05/22 05:57:50;;;;;;;4.97;0.50;;;;;;;17.83;50.09;99582.65;1744182;112;25893;-76
2022/05/22 06:01:43;;;;;;;;;;;;;;;;;;;;;
2022/05/22 06:05:36;;;;;;;;;;;;;;;;;;;;;
2022/05/22 06:09:04;;;;;;;1.25;0.50;;;;;;;18.38;48.91;99581.99;1810701;108;26011;-76
2022/05/22 06:12:48;;;;;;;0.47;0.47;;;;;;;18.61;48.66;99581.50;1799432;108;26584;-76
2022/05/22 06:16:47;;;;;;;1.77;0.40;;;;;;;18.74;48.26;99578.18;1966531;98;25872;-77
2022/05/22 06:20:52;;;;;;;0.70;0.40;;;;;;;18.72;47.98;99583.94;2005973;98;25865;-76
2022/05/22 06:24:10;;;;;;;1.98;0.30;;;;;;;18.65;48.00;99586.67;1902361;103;25947;-76
2022/05/22 06:27:55;;;;;;;3.05;0.45;;;;;;;18.67;48.01;99595.03;2028741;96;25858;-77
2022/05/22 06:31:49;;;;;;;0.75;0.40;;;;;;;18.80;47.92;99602.67;2029849;96;26479;-77
2022/05/22 06:35:20;;;;;;;0.88;0.40;;;;;;;19.34;48.19;99601.41;2034435;96;25853;-75
2022/05/22 06:43:53;;;;;;;;;;;;;;;;;;;;;
2022/05/22 06:47:41;;;;;;;1.87;0.53;;;;;;;20.25;46.56;99599.45;2095953;89;25732;-76
2022/05/22 06:51:17;;;;;;;0.33;0.30;;;;;;;20.37;46.04;99606.16;2098905;94;25761;-74
2022/05/22 06:54:59;;;;;;;1.02;0.40;;;;;;;21.02;45.38;99602.46;2074923;94;25726;-75
2022/05/22 06:58:36;;;;;;;1.32;0.37;;;;;;;21.21;44.47;99606.27;2097405;93;25279;-74
2022/05/22 07:02:13;;;;;;;3.50;0.55;;;;;;;21.18;43.98;99602.84;2095844;94;25959;-75
2022/05/22 07:05:51;;;;;;;1.12;0.40;;;;;;;21.32;43.58;99607.70;2093223;94;25800;-76
2022/05/22 07:09:44;;;;;;;1.07;0.88;;;;;;;21.57;43.02;99606.02;2114359;93;25939;-75
2022/05/22 07:13:53;;;;;;;1.10;0.85;;;;;;;22.13;42.45;99607.12;2074853;93;25995;-77
2022/05/22 07:17:58;;;;;;;1.10;0.40;;;;;;;22.64;41.54;99599.95;2000656;95;25835;-76
2022/05/22 07:21:39;;;;;;;0.35;0.30;;;;;;;22.57;40.79;99601.98;2037015;95;25872;-76
2022/05/22 07:25:26;;;;;;;1.60;0.70;;;;;;;22.72;40.21;99598.35;2040342;94;25919;-74
2022/05/22 07:28:58;;;;;;;0.70;0.40;;;;;;;22.56;39.96;99600.72;2041322;95;26151;-74
2022/05/22 07:32:50;;;;;;;0.47;0.40;;;;;;;22.37;40.04;99610.69;2037204;94;25850;-76
2022/05/22 07:41:01;;;;;;;1.87;0.40;;;;;;;22.82;39.66;99605.04;1980347;98;25803;-75
2022/05/22 07:45:01;;;;;;;;;;;;;;;;;;;;;
2022/05/22 07:48:37;;;;;;;0.53;0.40;;;;;;;23.61;38.31;99596.95;1861900;103;25872;-78
2022/05/22 07:52:42;;;;;;;;;;;;;;;;;;;;;
2022/05/22 07:56:21;;;;;;;1.30;0.50;;;;;;;23.12;38.22;99614.06;1928225;99;25812;-75
2022/05/22 07:59:45;;;;;;;1.87;0.42;;;;;;;22.90;38.27;99612.23;1947747;100;25768;-75
2022/05/22 08:03:25;;;;;;;0.90;0.50;;;;;;;22.95;38.40;99608.98;1947128;99;26496;-75
2022/05/22 08:06:48;;;;;;;0.55;0.30;;;;;;;23.49;38.24;99605.44;1948528;100;25721;-74
2022/05/22 08:10:22;;;;;;;0.53;0.47;;;;;;;23.65;38.03;99607.86;1954858;101;25855;-76
2022/05/22 08:17:25;;;;;;;0.57;0.50;;;;;;;24.76;37.27;99615.84;1948260;100;25870;-73
2022/05/22 08:21:07;;;;;;;0.68;0.30;;;;;;;24.88;36.77;99606.42;1982007;98;25982;-74
2022/05/22 08:24:30;;;;;;;0.68;0.40;;;;;;;24.62;36.54;99615.62;2006346;95;26066;-75
2022/05/22 08:28:17;;;;;;;1.02;0.50;;;;;;;24.30;36.60;99608.62;2045174;95;25788;-74
2022/05/22 08:32:05;;;;;;;1.23;0.47;;;;;;;24.15;36.60;99621.28;2092957;94;25801;-76
2022/05/22 08:35:33;;;;;;;4.12;0.50;;;;;;;24.50;36.58;99620.60;2092173;93;25780;-76
2022/05/22 08:38:56;;;;;;;2.17;0.62;;;;;;;24.56;36.55;99614.10;2092834;94;25863;-76
2022/05/22 08:42:21;;;;;;;1.27;0.40;;;;;;;25.01;36.84;99606.22;2092987;93;25960;-76
2022/05/22 08:46:27;;;;;;;0.60;0.40;;;;;;;26.07;36.48;99616.97;2090542;93;25871;-75
2022/05/22 08:50:21;;;;;;;1.10;0.80;;;;;;;27.06;35.46;99611.54;2090015;91;25823;-75
2022/05/22 08:54:06;;;;;;;3.05;0.40;;;;;;;27.36;34.52;99606.75;2090199;92;25905;-75
2022/05/22 09:02:30;;;;;;;0.60;0.55;;;;;;;26.48;33.94;99605.42;2167267;88;25872;-76
2022/05/22 09:06:05;;;;;;;1.40;0.45;;;;;;;26.22;34.07;99617.48;2227167;87;25663;-79
2022/05/22 09:09:39;;;;;;;1.95;0.40;;;;;;;26.70;33.85;99607.80;2227089;88;25505;-77
2022/05/22 09:13:57;;;;;;;6.17;0.50;;;;;;;27.48;33.37;99607.88;2224026;87;25721;-75
2022/05/22 09:22:21;;;;;;;;;;;;;;;;;;;;;
2022/05/22 09:26:30;;;;;;;0.68;0.42;;;;;;;27.53;32.02;99616.00;1994710;98;25795;-76
2022/05/22 09:31:11;;;;;;;;;;;;;;;;;;;;;
2022/05/22 09:35:35;;;;;;;2.27;0.50;;;;;;;27.45;31.29;99604.89;1977669;96;26138;-74
2022/05/22 09:39:53;;;;;;;0.45;0.40;;;;;;;27.02;31.14;99610.47;1935063;100;26159;-76
2022/05/22 09:48:04;;;;;;;0.90;0.40;;;;;;;27.04;30.86;99601.42;2003162;95;25811;-74
2022/05/22 09:51:52;;;;;;;3.77;0.30;;;;;;;26.63;30.67;99602.41;1983078;95;25923;-74
2022/05/22 09:55:53;;;;;;;1.07;0.40;;;;;;;26.30;30.68;99616.61;1989158;96;25981;-81
2022/05/22 09:59:42;;;;;;;0.50;0.30;;;;;;;26.10;30.84;99609.66;2004472;95;26450;-88
2022/05/22 10:03:41;;;;;;;0.78;0.33;;;;;;;26.29;30.77;99619.35;2061986;93;25743;-79
2022/05/22 10:07:38;;;;;;;0.30;0.30;;;;;;;26.68;30.79;99606.16;2072911;93;25795;-81
2022/05/22 10:11:58;;;;;;;3.47;0.37;;;;;;;27.24;30.65;99604.81;2075891;92;26602;-82
2022/05/22 10:16:16;;;;;;;;;;;;;;;;;;;;;
2022/05/22 10:20:37;;;;;;;1.32;0.53;;;;;;;26.80;30.13;99609.50;2230855;88;25265;-81
2022/05/22 10:28:29;;;;;;;0.50;0.50;;;;;;;26.20;30.18;99611.84;2074868;93;25796;-77
2022/05/22 10:40:15;;;;;;;0.55;0.40;;;;;;;25.72;30.21;99609.40;1954527;99;25827;-80
2022/05/22 10:44:01;;;;;;;;;;;;;;;;;;;;;
2022/05/22 10:47:49;;;;;;;1.57;0.50;;;;;;;25.31;30.14;99617.69;1965408;99;25929;-79
2022/05/22 10:52:06;;;;;;;0.60;0.40;;;;;;;25.14;30.33;99614.50;1932429;101;25959;-77
2022/05/22 10:55:52;;;;;;;1.25;0.50;;;;;;;25.13;30.46;99620.31;1868614;98;25837;-76
2022/05/22 10:59:34;;;;;;;;;;;;;;;25.00;30.41;99605.81;1878244;102;25905;-76
2022/05/22 11:03:17;;;;;;;2.30;0.60;;;;;;;24.96;30.39;99607.77;1879375;104;25790;-81
2022/05/22 11:07:00;;;;;;;0.82;0.50;;;;;;;24.93;30.55;99611.91;1917042;102;25853;-76
2022/05/22 11:10:31;;;;;;;0.75;0.50;;;;;;;25.08;30.52;99616.98;1979090;99;25871;-76
2022/05/22 11:14:18;;;;;;;0.82;0.53;;;;;;;25.30;30.52;99616.82;1979496;99;26512;-75
2022/05/22 11:17:40;;;;;;;0.70;0.40;;;;;;;25.43;30.46;99609.94;2014096;93;25965;-75
2022/05/22 11:21:44;;;;;;;6.55;0.82;;;;;;;25.30;30.54;99617.30;2068778;95;25765;-76
2022/05/22 11:25:46;;;;;;;8.50;0.55;;;;;;;25.11;30.84;99616.88;2082305;91;25304;-78
2022/05/22 11:30:08;;;;;;;2.70;0.45;;;;;;;25.02;31.09;99608.42;2241227;86;25937;-78
2022/05/22 11:34:12;;;;;;;1.37;0.50;;;;;;;24.83;31.25;99611.09;2257804;86;25753;-79
2022/05/22 11:38:11;;;;;;;0.93;0.60;;;;;;;24.60;31.49;99614.35;2238661;87;25818;-78
2022/05/22 11:42:03;;;;;;;2.77;0.55;;;;;;;24.52;31.67;99612.99;2172476;89;25703;-75
2022/05/22 11:46:07;;;;;;;1.57;0.30;;;;;;;24.53;32.12;99615.58;2175008;90;25757;-75
2022/05/22 11:49:56;;;;;;;0.70;0.60;;;;;;;24.30;31.65;99617.95;2153145;90;25868;-79
2022/05/22 11:54:03;;;;;;;0.80;0.60;;;;;;;23.89;32.01;99626.41;2225764;88;25628;-75
2022/05/22 11:58:07;;;;;;;;;;;;;;;;;;;;;
2022/05/22 12:06:10;;;;;;;2.98;0.80;;;;;;;24.14;33.43;99624.41;2053079;95;25690;-76
2022/05/22 12:10:08;;;;;;;4.00;0.60;;;;;;;24.59;33.36;99618.44;2058254;95;25937;-76
2022/05/22 12:13:55;;;;;;;1.40;0.57;;;;;;;24.65;33.01;99625.67;2065858;94;25717;-75
2022/05/22 12:18:01;;;;;;;1.25;0.60;;;;;;;24.55;32.76;99627.52;2010916;97;25758;-77
2022/05/22 12:21:56;;;;;;;3.62;0.90;;;;;;;24.43;32.24;99624.92;1982526;98;26589;-78
2022/05/22 12:25:28;;;;;;;1.32;1.00;;;;;;;24.18;31.14;99631.33;2024855;96;26416;-72
2022/05/22 12:29:00;;;;;;;1.10;0.53;;;;;;;23.91;31.18;99623.23;2034472;95;25777;-72
2022/05/22 12:32:29;;;;;;;4.60;0.55;;;;;;;23.71;30.94;99624.08;2046296;94;25945;-75
2022/05/22 12:35:54;;;;;;;1.40;0.80;;;;;;;23.56;31.01;99633.08;2035473;95;25303;-77
2022/05/22 12:39:19;;;;;;;1.75;0.50;;;;;;;23.55;31.00;99622.48;2028730;95;25755;-76
2022/05/22 12:42:49;;;;;;;0.90;0.60;;;;;;;23.49;31.00;99633.38;2023413;96;25773;-75
2022/05/22 12:46:17;;;;;;;5.87;0.40;;;;;;;23.29;31.31;99639.07;2045603;95;25836;-75
2022/05/22 12:49:58;;;;;;;0.75;0.50;;;;;;;23.21;31.46;99638.50;1964433;99;26443;-74
2022/05/22 12:53:30;;;;;;;2.87;0.50;;;;;;;23.16;31.69;99641.81;1964681;100;26570;-76
2022/05/22 12:56:52;;;;;;;4.85;0.60;;;;;;;23.01;31.90;99637.95;2003720;95;25772;-73
2022/05/22 13:04:50;;;;;;;2.25;0.50;;;;;;;22.79;32.29;99643.22;2132356;91;25959;-72
2022/05/22 13:08:49;;;;;;;1.10;0.60;;;;;;;22.65;32.58;99639.38;2061175;94;26583;-73
2022/05/22 13:12:19;;;;;;;1.20;0.60;;;;;;;22.58;32.89;99642.72;2059178;95;25765;-76
2022/05/22 13:15:53;;;;;;;;;;;;;;;22.64;33.02;99646.45;2042391;95;25978;-75
2022/05/22 13:19:26;;;;;;;3.60;1.12;;;;;;;22.58;33.19;99646.70;2045722;95;25976;-78
2022/05/22 13:22:53;;;;;;;3.02;0.50;;;;;;;22.58;33.31;99638.27;2063772;93;25793;-76
2022/05/22 13:26:29;;;;;;;2.98;0.57;;;;;;;22.63;33.29;99646.05;2065265;93;25759;-75
2022/05/22 13:30:23;;;;;;;1.17;0.40;;;;;;;22.57;33.47;99643.63;2044110;95;26429;-77
2022/05/22 13:34:01;;;;;;;0.95;0.68;;;;;;;22.52;33.49;99649.58;2033610;95;25325;-75
2022/05/22 13:37:31;;;;;;;1.55;0.90;;;;;;;22.45;33.42;99651.59;2051642;94;45277;-74
2022/05/22 13:41:16;;;;;;;2.12;0.60;;;;;;;22.28;33.62;99655.33;2110352;93;25783;-76
2022/05/22 13:45:28;;;;;;;1.20;0.72;;;;;;;22.13;33.83;99656.23;2129895;89;25700;-73
2022/05/22 13:49:28;;;;;;;1.50;0.80;;;;;;;21.94;34.07;99659.14;2249623;86;25946;-78
2022/05/22 13:53:12;;;;;;;0.72;0.70;;;;;;;21.73;34.40;99663.84;2270494;86;25884;-75
2022/05/22 13:57:15;;;;;;;2.58;0.70;;;;;;;21.55;34.76;99662.67;2265851;86;25747;-74
2022/05/22 14:00:43;;;;;;;2.00;0.70;;;;;;;21.40;35.16;99659.61;2202416;89;25745;-76
2022/05/22 14:04:14;;;;;;;4.65;0.70;;;;;;;21.16;35.45;99657.25;2215432;88;25694;-77
2022/05/22 14:07:52;;;;;;;1.50;0.70;;;;;;;21.05;35.66;99656.69;2216989;89;25884;-77
2022/05/22 14:11:41;;;;;;;3.65;0.80;;;;;;;20.95;35.78;99656.10;2214070;87;25804;-73
2022/05/22 14:15:31;;;;;;;4.97;1.15;;;;;;;20.91;36.02;99654.93;2174778;90;25777;-75
2022/05/22 14:19:07;;;;;;;2.52;0.82;;;;;;;20.91;36.22;99652.28;2174645;89;26354;-72
2022/05/22 14:22:28;;;;;;;2.15;0.85;;;;;;;20.94;36.41;99662.79;2201590;87;25854;-76
2022/05/22 14:26:02;;;;;;;1.82;0.85;;;;;;;20.94;36.58;99661.00;2202241;89;25727;-75
2022/05/22 14:29:50;;;;;;;3.35;1.05;;;;;;;20.90;36.63;99658.04;2199891;88;25855;-77
2022/05/22 14:33:23;;;;;;;3.30;1.05;;;;;;;20.88;36.78;99653.70;2078983;93;25829;-76
2022/05/22 14:37:31;;;;;;;;;;;;;;;;;;;;;
2022/05/22 14:41:21;;;;;;;1.45;0.90;;;;;;;20.81;37.01;99651.69;2104871;92;25825;-78
2022/05/22 14:44:53;;;;;;;1.17;0.70;;;;;;;20.76;37.21;99668.19;2126727;92;25728;-77
2022/05/22 14:49:12;;;;;;;;;;;;;;;;;;;;;
2022/05/22 14:52:38;;;;;;;1.30;0.68;;;;;;;21.29;37.89;99665.66;2123930;91;25807;-74
2022/05/22 14:56:16;;;;;;;7.65;0.93;;;;;;;21.46;37.97;99661.17;2125388;92;25769;-73
2022/05/22 15:00:04;;;;;;;1.53;0.63;;;;;;;21.55;37.20;99663.53;2123623;92;25878;-70
2022/05/22 15:04:29;;;;;;;1.35;1.12;;;;;;;21.52;37.33;99668.94;2098942;92;26562;-72
2022/05/22 15:08:32;;;;;;;1.00;0.80;;;;;;;21.58;37.47;99674.05;2049771;95;25692;-72
2022/05/22 15:12:01;;;;;;;2.20;0.88;;;;;;;21.46;36.93;99663.82;2045105;95;26458;-76
2022/05/22 15:15:43;;;;;;;1.67;0.90;;;;;;;21.32;36.99;99652.30;1973881;98;26122;-75
2022/05/22 15:19:54;;;;;;;3.62;1.15;;;;;;;21.23;37.00;99664.09;1973400;100;26006;-74
2022/05/22 15:27:31;;;;;;;1.42;1.00;;;;;;;21.04;37.32;99662.92;1877657;103;25796;-77
2022/05/22 15:30:59;;;;;;;4.15;1.07;;;;;;;20.91;37.62;99664.20;1971083;97;25769;-76
2022/05/22 15:34:32;;;;;;;4.30;1.17;;;;;;;20.85;37.75;99660.41;1972998;100;25807;-76
2022/05/22 15:38:01;;;;;;;1.07;0.80;;;;;;;20.76;37.87;99669.52;1988830;98;25824;-76
2022/05/22 15:41:47;;;;;;;1.27;0.90;;;;;;;20.75;37.97;99658.48;2001884;98;25917;-77
2022/05/22 15:45:13;;;;;;;1.35;0.95;;;;;;;20.75;38.07;99659.38;2002570;97;25729;-81
2022/05/22 15:52:52;;;;;;;3.17;0.85;;;;;;;20.73;38.19;99653.71;2018600;96;25889;-78
2022/05/22 15:56:14;;;;;;;1.77;1.05;;;;;;;20.71;38.20;99656.38;2132669;91;25737;-72
2022/05/22 15:59:48;;;;;;;;;;;;;;;;;;;;;
2022/05/22 16:03:03;;;;;;;3.42;1.07;;;;;;;20.64;38.25;99650.00;2180899;85;25809;-77
2022/05/22 16:06:25;;;;;;;2.58;1.02;;;;;;;20.62;38.24;99654.45;2318522;84;25719;-77
2022/05/22 16:09:46;;;;;;;2.10;1.15;;;;;;;20.60;38.25;99661.60;2309867;84;25719;-76
2022/05/22 16:13:09;;;;;;;2.52;0.70;;;;;;;20.58;38.18;99655.47;2307963;84;25948;-76
2022/05/22 16:16:38;;;;;;;2.40;1.12;;;;;;;20.55;38.33;99661.71;2315444;84;25633;-78
2022/05/22 16:20:18;;;;;;;3.15;0.70;;;;;;;20.45;38.30;99670.80;2335065;84;25732;-74
2022/05/22 16:24:05;;;;;;;2.98;0.80;;;;;;;20.37;38.52;99669.70;2336461;84;26155;-78
2022/05/22 16:27:35;;;;;;;1.27;0.82;;;;;;;20.31;38.55;99671.19;2095141;92;25895;-76
2022/05/22 16:31:09;;;;;;;4.90;0.80;;;;;;;20.26;38.57;99666.48;2060114;93;26438;-75
2022/05/22 16:34:39;;;;;;;1.15;0.85;;;;;;;20.25;38.71;99684.16;2034881;95;25970;-84
2022/05/22 16:38:02;;;;;;;4.20;1.07;;;;;;;20.17;38.81;99682.15;2066948;95;25808;-82
2022/05/22 16:41:53;;;;;;;3.75;1.00;;;;;;;20.07;38.97;99681.98;2065446;95;25822;-78
2022/05/22 16:45:15;;;;;;;1.35;0.70;;;;;;;20.04;39.23;99684.25;2011865;97;25867;-82
2022/05/22 16:53:05;;;;;;;1.62;0.90;;;;;;;19.95;39.26;99684.51;2028466;97;25802;-76
2022/05/22 16:56:31;;;;;;;2.98;0.90;;;;;;;19.72;39.27;99685.09;2026702;96;26796;-76
2022/05/22 17:00:20;;;;;;;4.70;1.10;;;;;;;19.56;39.33;99686.33;2000555;96;25814;-77
2022/05/22 17:03:43;;;;;;;3.52;0.90;;;;;;;19.43;39.38;99680.92;1999692;97;26046;-77
2022/05/22 17:07:24;;;;;;;4.80;0.82;;;;;;;19.31;39.47;99695.31;2088496;93;25730;-77
2022/05/22 17:10:57;;;;;;;1.15;0.72;;;;;;;19.17;39.59;99696.95;2085157;94;25862;-77
2022/05/22 17:14:37;;;;;;;2.02;0.70;;;;;;;19.04;39.83;99698.98;2091420;93;25870;-77
2022/05/22 17:18:22;;;;;;;3.45;0.75;;;;;;;18.91;40.03;99700.61;2089727;93;25947;-78
2022/05/22 17:22:14;;;;;;;1.15;0.82;;;;;;;18.78;40.28;99699.53;1992914;97;25820;-77
2022/05/22 17:25:48;;;;;;;7.00;0.78;;;;;;;18.72;40.36;99702.30;2040973;96;25733;-78
2022/05/22 17:29:22;;;;;;;1.72;1.37;;;;;;;18.67;40.53;99707.23;2042958;95;25877;-76
2022/05/22 17:32:47;;;;;;;6.17;1.30;;;;;;;18.59;40.51;99708.69;2043668;94;25805;-77
2022/05/22 17:36:30;;;;;;;1.30;1.10;;;;;;;18.47;40.68;99712.45;2041887;96;25697;-77
2022/05/22 17:40:00;;;;;;;1.10;0.70;;;;;;;18.43;40.73;99710.78;2050058;94;25758;-76
2022/05/22 17:43:30;;;;;;;4.47;0.55;;;;;;;18.37;40.77;99712.20;2094092;92;25830;-76
2022/05/22 17:47:08;;;;;;;4.10;0.80;;;;;;;18.28;40.92;99718.52;2101908;90;25752;-76
2022/05/22 17:50:45;;;;;;;7.28;1.05;;;;;;;18.20;41.17;99711.20;2125261;92;25804;-77
2022/05/22 17:54:20;;;;;;;0.88;0.70;;;;;;;18.12;41.22;99714.41;2125206;92;25754;-76
2022/05/22 17:57:51;;;;;;;1.80;1.15;;;;;;;18.07;41.33;99717.59;2123052;92;25669;-77
2022/05/22 18:01:27;;;;;;;5.08;1.00;;;;;;;17.98;41.49;99716.42;2121808;92;25816;-77
2022/05/22 18:04:52;;;;;;;1.22;1.10;;;;;;;17.90;41.67;99716.56;2120017;92;25817;-76
2022/05/22 18:08:19;;;;;;;1.92;1.30;;;;;;;17.78;41.86;99715.44;2125615;92;29177;-76
2022/05/22 18:19:24;;;;;;;1.87;1.20;;;;;;;17.74;42.69;99720.31;2199226;88;25793;-80
2022/05/22 18:22:47;;;;;;;;;;;;;;;17.86;42.67;99722.80;2235393;86;25902;-74
2022/05/22 18:26:16;;;;;;;1.67;0.90;;;;;;;17.98;42.63;99718.61;2244125;86;25746;-75
2022/05/22 18:29:44;;;;;;;3.47;0.98;;;;;;;18.07;42.37;99716.27;2199413;88;25726;-75
2022/05/22 18:33:28;;;;;;;4.65;0.95;;;;;;;18.22;42.50;99721.71;2242049;86;25684;-76
2022/05/22 18:36:59;;;;;;;8.98;1.32;;;;;;;18.37;42.67;99717.48;2199261;89;25757;-76
2022/05/22 18:40:26;;;;;;;5.37;1.35;;;;;;;18.39;42.17;99717.88;2242361;86;25646;-76
2022/05/22 18:43:55;;;;;;;3.30;1.17;;;;;;;18.34;42.13;99720.18;2241345;87;25712;-76
2022/05/22 18:47:37;;;;;;;1.57;1.02;;;;;;;18.30;42.00;99725.10;2244933;86;25697;-76
2022/05/22 18:51:07;;;;;;;2.37;1.27;;;;;;;18.24;42.09;99722.57;2225804;87;25635;-77
2022/05/22 18:54:36;;;;;;;2.35;1.10;;;;;;;18.26;42.06;99719.44;2288751;85;25763;-76
2022/05/22 18:57:59;;;;;;;1.70;1.10;;;;;;;18.26;42.10;99738.80;2295845;85;25450;-76
2022/05/22 19:01:31;;;;;;;3.50;1.22;;;;;;;18.28;41.97;99738.75;2280987;85;25705;-77
2022/05/22 19:04:56;;;;;;;3.00;1.25;;;;;;;18.32;42.02;99736.48;2288568;84;25699;-77
2022/05/22 19:08:32;;;;;;;1.20;1.00;;;;;;;18.31;41.99;99740.02;2289534;84;25748;-77
2022/05/22 19:12:05;;;;;;;1.22;0.93;;;;;;;18.36;41.85;99737.73;2264881;85;25894;-76
2022/05/22 19:15:31;;;;;;;4.78;1.20;;;;;;;18.33;41.78;99733.83;2290632;85;25727;-76
2022/05/22 19:18:56;;;;;;;1.45;1.20;;;;;;;18.22;41.81;99742.36;2245405;85;25735;-76
2022/05/22 19:22:24;;;;;;;1.95;0.98;;;;;;;18.20;41.89;99743.31;2289281;85;26313;-76
2022/05/22 19:26:08;;;;;;;1.75;1.00;;;;;;;18.14;41.90;99746.47;2271049;84;25743;-84
2022/05/22 19:29:32;;;;;;;1.50;1.10;;;;;;;18.13;41.99;99750.02;2270907;86;25651;-74
2022/05/22 19:33:06;;;;;;;3.47;0.98;;;;;;;18.16;42.02;99752.59;2266172;87;25875;-74
2022/05/22 19:36:39;;;;;;;6.70;1.25;;;;;;;18.18;42.06;99749.47;2245713;87;25696;-76
2022/05/22 19:40:08;;;;;;;1.82;1.02;;;;;;;18.20;41.97;99752.09;2273127;85;26419;-76
2022/05/22 19:47:35;;;;;;;1.67;1.07;;;;;;;18.25;42.03;99757.28;2268190;85;25747;-76
2022/05/22 19:51:11;;;;;;;6.03;1.05;;;;;;;18.31;42.00;99752.77;2300342;85;26284;-76
2022/05/22 19:58:50;;;;;;;5.60;1.10;;;;;;;18.62;42.42;99752.19;2301958;85;26154;-77
2022/05/22 20:02:07;;;;;;;3.55;1.47;;;;;;;18.93;41.76;99756.89;2301472;85;25624;-76
2022/05/22 20:05:41;;;;;;;1.40;1.20;;;;;;;19.04;41.34;99749.63;2282361;86;25655;-76
2022/05/22 20:09:12;;;;;;;4.40;1.47;;;;;;;19.20;41.69;99747.05;2304739;84;25663;-76
2022/05/22 20:12:49;;;;;;;1.30;0.93;;;;;;;19.44;41.69;99752.28;2315024;84;25626;-76
2022/05/22 20:20:13;;;;;;;1.85;1.17;;;;;;;19.89;41.12;99749.93;2198279;88;25671;-77
2022/05/22 20:23:54;;;;;;;2.45;1.00;;;;;;;19.92;40.81;99759.98;2168840;90;25864;-79